Terminal Aerodrome Forecast
Issued by NWS

Home | Current Version | Previous Version | Text Only | Print | Product List | Glossary Off
Versions: 1 2 3 4 5 6 7 8 9 10 11 12 13 14 15 16 17 18

000
FTUS41 KCLE 181741
TAFFDY
TAF
KFDY 181741Z 1818/1918 18009KT P6SM SCT018 BKN250
      TEMPO 1818/1819 BKN018
     FM190800 18011KT P6SM BKN060 WS020/21045KT
     FM191100 18011KT 5SM -RA OVC020 WS020/22045KT
     FM191400 19012KT 1 1/2SM -RA BR OVC007 WS020/21040KT=

USA.gov is the U.S. government's official web portal to all federal, state and local government web resources and services.